Time;durP1;ratioP1;P1;durP2;ratioP2;P2;SDS_P1;SDS_P2;PMS_P1;PMS_P2;Temp;Humidity;BMP_temperature;BMP_pressure;BME280_temperature;BME280_humidity;BME280_pressure;Samples;Min_cycle;Max_cycle;Signal;HPM_P1;HPM_P2
2024/02/25 00:00:56;;;;;;;6.47;3.53;;;;;;;;;;5007695;28;20037;-82
2024/02/25 00:03:42;;;;;;;6.03;4.18;;;;;;;;;;5008727;28;20368;-83
2024/02/25 00:06:27;;;;;;;7.32;3.55;;;;;;;;;;5002952;28;20129;-82
2024/02/25 00:09:13;;;;;;;7.90;4.00;;;;;;;;;;5007348;28;20108;-83
2024/02/25 00:11:58;;;;;;;7.20;3.90;;;;;;;;;;5003777;28;20026;-83
2024/02/25 00:14:43;;;;;;;9.15;3.90;;;;;;;;;;5006631;28;20021;-83
2024/02/25 00:17:28;;;;;;;8.75;3.63;;;;;;;;;;5005855;28;20231;-83
2024/02/25 00:20:14;;;;;;;9.98;4.40;;;;;;;;;;5009205;28;20844;-82
2024/02/25 00:22:59;;;;;;;9.75;4.68;;;;;;;;;;5004250;28;20037;-82
2024/02/25 00:25:44;;;;;;;8.93;4.53;;;;;;;;;;5008505;28;20029;-82
2024/02/25 00:28:30;;;;;;;5.85;3.50;;;;;;;;;;5002144;28;20080;-82
2024/02/25 00:31:15;;;;;;;7.57;4.18;;;;;;;;;;5003060;28;20025;-82
2024/02/25 00:34:00;;;;;;;7.68;3.92;;;;;;;;;;5008971;28;20457;-82
2024/02/25 00:36:48;;;;;;;9.00;4.28;;;;;;;;;;4999262;28;20036;-82
2024/02/25 00:39:34;;;;;;;6.85;3.70;;;;;;;;;;4994797;28;20076;-82
2024/02/25 00:42:19;;;;;;;8.27;4.15;;;;;;;;;;4999913;28;20021;-80
2024/02/25 00:45:04;;;;;;;7.53;4.03;;;;;;;;;;5009562;28;20080;-82
2024/02/25 00:47:49;;;;;;;6.95;4.28;;;;;;;;;;5005979;28;20029;-81
2024/02/25 00:50:35;;;;;;;8.23;3.53;;;;;;;;;;4999283;28;20037;-83
2024/02/25 00:53:20;;;;;;;5.40;2.85;;;;;;;;;;5000206;28;20037;-83
2024/02/25 00:56:05;;;;;;;5.03;3.22;;;;;;;;;;5010563;28;20045;-83
2024/02/25 00:58:51;;;;;;;6.90;3.22;;;;;;;;;;5001800;28;20017;-82
2024/02/25 01:01:36;;;;;;;4.57;2.95;;;;;;;;;;5003011;28;20486;-82
2024/02/25 01:04:21;;;;;;;8.18;4.35;;;;;;;;;;5001163;28;20033;-81
2024/02/25 01:07:07;;;;;;;6.07;3.67;;;;;;;;;;4997155;28;20555;-83
2024/02/25 01:09:52;;;;;;;5.35;3.40;;;;;;;;;;5000626;28;20057;-83
2024/02/25 01:12:37;;;;;;;5.70;3.45;;;;;;;;;;5001277;28;20494;-82
2024/02/25 01:15:22;;;;;;;7.35;3.35;;;;;;;;;;5006259;28;20029;-82
2024/02/25 01:18:08;;;;;;;5.75;3.22;;;;;;;;;;5010492;28;20029;-82
2024/02/25 01:20:53;;;;;;;6.40;3.42;;;;;;;;;;5005785;28;20084;-82
2024/02/25 01:23:38;;;;;;;8.63;3.50;;;;;;;;;;5007269;28;20091;-82
2024/02/25 01:26:23;;;;;;;6.10;2.70;;;;;;;;;;4999086;28;20535;-82
2024/02/25 01:29:08;;;;;;;4.68;2.78;;;;;;;;;;5002087;28;20540;-81
2024/02/25 01:31:56;;;;;;;5.40;3.22;;;;;;;;;;5005097;28;20432;-81
2024/02/25 01:34:41;;;;;;;5.90;2.80;;;;;;;;;;5006249;28;20049;-81
2024/02/25 01:37:26;;;;;;;5.97;3.53;;;;;;;;;;5009289;28;20060;-81
2024/02/25 01:40:12;;;;;;;6.97;2.88;;;;;;;;;;5008822;28;20113;-80
2024/02/25 01:43:10;;;;;;;7.93;3.40;;;;;;;;;;5009255;28;20217;-82
2024/02/25 01:45:55;;;;;;;5.38;2.97;;;;;;;;;;5005044;28;20515;-80
2024/02/25 01:48:41;;;;;;;7.53;3.50;;;;;;;;;;5010520;28;20076;-81
2024/02/25 01:51:27;;;;;;;6.68;3.30;;;;;;;;;;5009268;28;20357;-83
2024/02/25 01:54:12;;;;;;;5.78;3.50;;;;;;;;;;5003237;28;20080;-81
2024/02/25 01:56:57;;;;;;;6.28;3.80;;;;;;;;;;5012810;28;20111;-82
2024/02/25 01:59:43;;;;;;;7.10;3.15;;;;;;;;;;5012981;28;20029;-83
2024/02/25 02:02:29;;;;;;;7.20;3.42;;;;;;;;;;5011202;28;20049;-81
2024/02/25 02:05:14;;;;;;;5.53;3.50;;;;;;;;;;5012850;28;20063;-82
2024/02/25 02:07:59;;;;;;;6.18;3.08;;;;;;;;;;5004447;28;20207;-80
2024/02/25 02:10:46;;;;;;;4.82;2.92;;;;;;;;;;5024988;28;20033;-84
2024/02/25 02:13:31;;;;;;;6.43;3.03;;;;;;;;;;5005560;28;20612;-83
2024/02/25 02:16:16;;;;;;;3.85;2.40;;;;;;;;;;5012488;28;20371;-82
2024/02/25 02:19:02;;;;;;;5.75;2.78;;;;;;;;;;5006986;28;20013;-83
2024/02/25 02:21:50;;;;;;;4.95;2.55;;;;;;;;;;5007723;28;20823;-81
2024/02/25 02:24:35;;;;;;;5.85;2.63;;;;;;;;;;5006994;28;20392;-83
2024/02/25 02:27:21;;;;;;;4.20;2.47;;;;;;;;;;5006840;28;20036;-83
2024/02/25 02:30:07;;;;;;;6.28;2.42;;;;;;;;;;5004724;28;20395;-83
2024/02/25 02:32:52;;;;;;;4.43;2.70;;;;;;;;;;5005420;28;20030;-84
2024/02/25 02:35:37;;;;;;;4.05;2.50;;;;;;;;;;5000377;28;20077;-82
2024/02/25 02:38:24;;;;;;;4.35;2.22;;;;;;;;;;5004167;28;20029;-84
2024/02/25 02:41:10;;;;;;;6.68;2.40;;;;;;;;;;5006822;28;20412;-83
2024/02/25 02:43:55;;;;;;;4.85;2.28;;;;;;;;;;5006236;28;20029;-83
2024/02/25 02:46:40;;;;;;;5.68;2.40;;;;;;;;;;5005172;28;20302;-83
2024/02/25 02:49:29;;;;;;;3.58;2.13;;;;;;;;;;5018418;28;20748;-83
2024/02/25 02:52:14;;;;;;;3.58;1.90;;;;;;;;;;5005986;28;20029;-83
2024/02/25 02:55:00;;;;;;;4.88;2.00;;;;;;;;;;5006778;28;20048;-83
2024/02/25 02:57:45;;;;;;;6.28;2.47;;;;;;;;;;5000312;28;20017;-83
2024/02/25 03:00:30;;;;;;;3.88;2.28;;;;;;;;;;5009128;28;20028;-83
2024/02/25 03:03:15;;;;;;;4.28;2.13;;;;;;;;;;5008447;28;20021;-82
2024/02/25 03:06:00;;;;;;;4.40;2.50;;;;;;;;;;5023726;28;20033;-82
2024/02/25 03:08:46;;;;;;;3.97;1.90;;;;;;;;;;5008271;28;20105;-82
2024/02/25 03:11:31;;;;;;;5.32;2.28;;;;;;;;;;5008018;28;20120;-81
2024/02/25 03:14:17;;;;;;;3.53;1.85;;;;;;;;;;5011220;28;20030;-84
2024/02/25 03:17:03;;;;;;;2.90;2.25;;;;;;;;;;5004779;28;20086;-81
2024/02/25 03:19:48;;;;;;;3.28;2.00;;;;;;;;;;5008375;28;20025;-84
2024/02/25 03:22:34;;;;;;;4.38;2.45;;;;;;;;;;5014061;28;20021;-83
2024/02/25 03:25:19;;;;;;;4.97;2.10;;;;;;;;;;5011823;28;20017;-83
2024/02/25 03:28:04;;;;;;;4.60;2.35;;;;;;;;;;5012590;28;20647;-82
2024/02/25 03:30:50;;;;;;;3.72;1.77;;;;;;;;;;5010596;28;20100;-82
2024/02/25 03:33:35;;;;;;;3.88;1.98;;;;;;;;;;5014148;28;20053;-82
2024/02/25 03:36:20;;;;;;;3.10;1.90;;;;;;;;;;5012607;28;20075;-83
2024/02/25 03:39:06;;;;;;;4.57;2.08;;;;;;;;;;5001073;28;20025;-84
2024/02/25 03:41:52;;;;;;;4.10;2.08;;;;;;;;;;5008843;28;20138;-82
2024/02/25 03:44:37;;;;;;;5.22;2.10;;;;;;;;;;5008550;28;20037;-82
2024/02/25 03:47:23;;;;;;;3.05;2.35;;;;;;;;;;5015052;28;20021;-82
2024/02/25 03:50:14;;;;;;;3.15;2.30;;;;;;;;;;5010710;28;20037;-83
2024/02/25 03:52:59;;;;;;;4.60;2.50;;;;;;;;;;5008506;28;20029;-82
2024/02/25 03:55:45;;;;;;;3.92;2.17;;;;;;;;;;5007110;28;20029;-82
2024/02/25 03:58:30;;;;;;;3.28;2.10;;;;;;;;;;5010315;28;20042;-82
2024/02/25 04:01:15;;;;;;;4.28;2.10;;;;;;;;;;5007248;28;20033;-82
2024/02/25 04:04:00;;;;;;;3.60;2.13;;;;;;;;;;5001303;28;20026;-82
2024/02/25 04:06:46;;;;;;;3.80;2.10;;;;;;;;;;5005685;28;20024;-81
2024/02/25 04:09:31;;;;;;;4.10;2.53;;;;;;;;;;5004869;28;20032;-83
2024/02/25 04:12:16;;;;;;;4.35;2.33;;;;;;;;;;5010392;28;20068;-82
2024/02/25 04:15:02;;;;;;;8.77;2.10;;;;;;;;;;5006005;28;20034;-82
2024/02/25 04:17:48;;;;;;;4.13;1.88;;;;;;;;;;5002544;28;20529;-81
2024/02/25 04:20:35;;;;;;;3.65;1.98;;;;;;;;;;5010882;28;20021;-82
2024/02/25 04:23:21;;;;;;;4.25;1.95;;;;;;;;;;5006004;28;20025;-82
2024/02/25 04:26:06;;;;;;;5.03;2.38;;;;;;;;;;5005105;28;20020;-83
2024/02/25 04:28:52;;;;;;;4.00;1.85;;;;;;;;;;5000809;28;20022;-84
2024/02/25 04:31:43;;;;;;;3.80;2.22;;;;;;;;;;5008550;28;20426;-84
2024/02/25 04:34:28;;;;;;;4.28;1.90;;;;;;;;;;5009328;28;20131;-82
2024/02/25 04:37:13;;;;;;;3.83;2.33;;;;;;;;;;5006190;28;20022;-80
2024/02/25 04:40:00;;;;;;;3.55;2.20;;;;;;;;;;5008074;28;20041;-84
2024/02/25 04:42:45;;;;;;;5.28;2.33;;;;;;;;;;5011371;28;20109;-83
2024/02/25 04:45:31;;;;;;;3.72;1.95;;;;;;;;;;5001251;28;20686;-83
2024/02/25 04:48:16;;;;;;;2.05;1.45;;;;;;;;;;5006897;28;20026;-82
2024/02/25 04:51:02;;;;;;;4.45;2.20;;;;;;;;;;4996424;28;20036;-83
2024/02/25 04:53:56;;;;;;;6.13;1.90;;;;;;;;;;5007193;28;20058;-83
2024/02/25 04:56:44;;;;;;;4.10;2.13;;;;;;;;;;5001789;28;20056;-82
2024/02/25 04:59:29;;;;;;;4.20;2.25;;;;;;;;;;5009389;28;20013;-83
2024/02/25 05:02:15;;;;;;;4.55;2.58;;;;;;;;;;5005065;28;20112;-84
2024/02/25 05:05:00;;;;;;;4.13;2.03;;;;;;;;;;5011930;28;20030;-81
2024/02/25 05:07:46;;;;;;;3.55;2.13;;;;;;;;;;5008479;28;20091;-83
2024/02/25 05:10:31;;;;;;;3.53;1.92;;;;;;;;;;5022913;28;20029;-83
2024/02/25 05:13:16;;;;;;;4.57;2.72;;;;;;;;;;5031184;28;20014;-83
2024/02/25 05:16:04;;;;;;;6.78;2.05;;;;;;;;;;5032076;28;20022;-82
2024/02/25 05:18:48;;;;;;;3.85;1.70;;;;;;;;;;5051784;28;21148;-82
2024/02/25 05:21:33;;;;;;;4.72;2.75;;;;;;;;;;5045639;28;20025;-82
2024/02/25 05:24:19;;;;;;;6.10;2.63;;;;;;;;;;5032036;28;20053;-82
2024/02/25 05:27:04;;;;;;;4.50;2.40;;;;;;;;;;5011472;28;20040;-82
2024/02/25 05:29:49;;;;;;;4.55;2.40;;;;;;;;;;5012504;28;20025;-82
2024/02/25 05:32:38;;;;;;;4.40;2.08;;;;;;;;;;5006532;28;20377;-83
2024/02/25 05:35:23;;;;;;;2.78;1.77;;;;;;;;;;5014240;28;20633;-83
2024/02/25 05:38:08;;;;;;;5.43;2.40;;;;;;;;;;5000914;28;20045;-84
2024/02/25 05:40:53;;;;;;;3.88;2.15;;;;;;;;;;5003447;28;20022;-83
2024/02/25 05:43:39;;;;;;;3.58;1.90;;;;;;;;;;5004739;28;20029;-83
2024/02/25 05:46:24;;;;;;;3.80;2.10;;;;;;;;;;5007345;28;20117;-83
2024/02/25 05:49:10;;;;;;;3.45;1.75;;;;;;;;;;4999946;28;20029;-83
2024/02/25 05:51:55;;;;;;;3.40;1.85;;;;;;;;;;5004976;28;20026;-82
2024/02/25 05:54:40;;;;;;;3.95;1.85;;;;;;;;;;5008368;28;20116;-82
2024/02/25 05:57:25;;;;;;;2.78;1.67;;;;;;;;;;5008737;28;20026;-84
2024/02/25 06:00:13;;;;;;;3.67;2.05;;;;;;;;;;5008003;28;20099;-82
2024/02/25 06:02:58;;;;;;;3.00;1.70;;;;;;;;;;5004622;28;20033;-82
2024/02/25 06:05:43;;;;;;;5.38;2.10;;;;;;;;;;5001958;28;20017;-83
2024/02/25 06:08:29;;;;;;;8.05;2.33;;;;;;;;;;5011217;28;20021;-84
2024/02/25 06:11:14;;;;;;;3.03;2.00;;;;;;;;;;5007338;28;20041;-82
2024/02/25 06:13:59;;;;;;;5.93;2.38;;;;;;;;;;5007912;28;20064;-84
2024/02/25 06:16:44;;;;;;;3.90;1.98;;;;;;;;;;5011794;28;20052;-82
2024/02/25 06:19:30;;;;;;;4.07;2.83;;;;;;;;;;5013600;28;20026;-83
2024/02/25 06:22:16;;;;;;;8.07;2.50;;;;;;;;;;5002487;28;20086;-82
2024/02/25 06:25:05;;;;;;;2.92;2.25;;;;;;;;;;5013276;28;20211;-83
2024/02/25 06:27:50;;;;;;;4.15;2.35;;;;;;;;;;5012494;28;20032;-83
2024/02/25 06:30:36;;;;;;;2.55;2.00;;;;;;;;;;5000005;28;20484;-83
2024/02/25 06:33:21;;;;;;;6.25;3.17;;;;;;;;;;5001986;28;20085;-83
2024/02/25 06:36:17;;;;;;;13.10;4.18;;;;;;;;;;5014305;28;20029;-83
2024/02/25 06:39:02;;;;;;;7.53;3.20;;;;;;;;;;5001134;28;20349;-83
2024/02/25 06:41:48;;;;;;;6.00;2.72;;;;;;;;;;5001028;28;20121;-83
2024/02/25 06:44:33;;;;;;;5.57;2.42;;;;;;;;;;5016235;28;20034;-82
2024/02/25 06:47:18;;;;;;;4.03;2.00;;;;;;;;;;5009185;28;20037;-83
2024/02/25 06:50:04;;;;;;;4.00;2.13;;;;;;;;;;5005675;28;20037;-82
2024/02/25 06:52:49;;;;;;;4.22;2.10;;;;;;;;;;5010037;28;20109;-84
2024/02/25 06:55:35;;;;;;;3.40;2.10;;;;;;;;;;5004939;28;20463;-84
2024/02/25 06:58:20;;;;;;;4.00;2.38;;;;;;;;;;5011086;28;20086;-84
2024/02/25 07:01:05;;;;;;;5.50;2.75;;;;;;;;;;5007045;28;20228;-85
2024/02/25 07:03:50;;;;;;;4.93;2.13;;;;;;;;;;5000482;28;20068;-84
2024/02/25 07:06:35;;;;;;;5.55;2.38;;;;;;;;;;4998552;28;20036;-84
2024/02/25 07:09:21;;;;;;;5.70;3.00;;;;;;;;;;5009130;28;20021;-84
2024/02/25 07:12:09;;;;;;;6.47;2.40;;;;;;;;;;5003760;28;20041;-84
2024/02/25 07:14:54;;;;;;;4.97;2.70;;;;;;;;;;5013564;28;20505;-83
2024/02/25 07:17:41;;;;;;;6.03;2.80;;;;;;;;;;5004539;28;20104;-82
2024/02/25 07:20:26;;;;;;;5.05;2.72;;;;;;;;;;5007071;28;20021;-85
2024/02/25 07:23:11;;;;;;;5.78;2.30;;;;;;;;;;5007928;28;20407;-84
2024/02/25 07:25:57;;;;;;;3.80;2.38;;;;;;;;;;5000741;28;20412;-83
2024/02/25 07:28:43;;;;;;;4.45;2.53;;;;;;;;;;5003458;28;20057;-83
2024/02/25 07:31:30;;;;;;;10.80;3.08;;;;;;;;;;5001799;28;22328;-84
2024/02/25 07:34:16;;;;;;;5.30;2.55;;;;;;;;;;5016350;28;20041;-84
2024/02/25 07:37:07;;;;;;;4.07;3.28;;;;;;;;;;5001111;28;20032;-83
2024/02/25 07:39:52;;;;;;;4.80;2.75;;;;;;;;;;5009113;28;20542;-83
2024/02/25 07:42:37;;;;;;;7.93;3.13;;;;;;;;;;5000879;28;20108;-83
2024/02/25 07:45:22;;;;;;;8.07;3.25;;;;;;;;;;5009407;28;20112;-83
2024/02/25 07:48:08;;;;;;;4.78;2.92;;;;;;;;;;5003821;28;20025;-83
2024/02/25 07:50:53;;;;;;;7.40;3.50;;;;;;;;;;5002974;28;20060;-85
2024/02/25 07:53:38;;;;;;;4.07;2.70;;;;;;;;;;5004360;28;20130;-83
2024/02/25 07:56:23;;;;;;;6.07;3.13;;;;;;;;;;5007770;28;20065;-83
2024/02/25 07:59:09;;;;;;;5.60;2.88;;;;;;;;;;5008306;28;20116;-85
2024/02/25 08:01:56;;;;;;;6.53;3.40;;;;;;;;;;5003912;28;20057;-84
2024/02/25 08:04:41;;;;;;;5.38;3.20;;;;;;;;;;5004666;28;20100;-84
2024/02/25 08:07:26;;;;;;;7.35;2.88;;;;;;;;;;5004743;28;20070;-84
2024/02/25 08:10:11;;;;;;;5.40;2.92;;;;;;;;;;5013870;28;20124;-81
2024/02/25 08:12:59;;;;;;;6.65;2.97;;;;;;;;;;5002087;28;20399;-83
2024/02/25 08:15:44;;;;;;;4.82;2.90;;;;;;;;;;5003149;28;20134;-86
2024/02/25 08:18:29;;;;;;;4.57;3.08;;;;;;;;;;5003734;28;20472;-87
2024/02/25 08:21:15;;;;;;;8.73;3.85;;;;;;;;;;5005577;28;20049;-86
2024/02/25 08:24:00;;;;;;;6.68;3.20;;;;;;;;;;5009685;28;20029;-85
2024/02/25 08:26:45;;;;;;;6.30;2.65;;;;;;;;;;5000581;28;20037;-83
2024/02/25 08:29:31;;;;;;;6.70;2.90;;;;;;;;;;5006153;28;20021;-85
2024/02/25 08:32:16;;;;;;;8.07;3.00;;;;;;;;;;5004843;28;20053;-84
2024/02/25 08:35:01;;;;;;;5.47;2.80;;;;;;;;;;4999640;28;20873;-85
2024/02/25 08:37:47;;;;;;;5.00;2.58;;;;;;;;;;5002010;28;20045;-86
2024/02/25 08:40:32;;;;;;;4.18;2.65;;;;;;;;;;5000458;28;20239;-86
2024/02/25 08:43:18;;;;;;;5.57;2.60;;;;;;;;;;4996739;28;20096;-86
2024/02/25 08:46:38;;;;;;;6.13;2.75;;;;;;;;;;4997301;28;20045;-87
2024/02/25 08:49:24;;;;;;;6.72;3.05;;;;;;;;;;4989109;28;20030;-82
2024/02/25 08:52:09;;;;;;;4.78;2.38;;;;;;;;;;4998433;28;20046;-81
2024/02/25 08:54:55;;;;;;;5.85;1.98;;;;;;;;;;5003143;28;20030;-81
2024/02/25 08:57:40;;;;;;;4.88;1.65;;;;;;;;;;5000288;28;20065;-80
2024/02/25 09:00:25;;;;;;;2.85;1.60;;;;;;;;;;5008709;28;20034;-82
2024/02/25 09:03:11;;;;;;;2.88;1.30;;;;;;;;;;5002682;28;20109;-82
2024/02/25 09:05:56;;;;;;;2.28;1.48;;;;;;;;;;5007477;28;20420;-81
2024/02/25 09:08:42;;;;;;;1.40;1.30;;;;;;;;;;5007829;28;20022;-81
2024/02/25 09:11:27;;;;;;;3.97;1.58;;;;;;;;;;5020688;28;20401;-80
2024/02/25 09:14:12;;;;;;;1.42;1.20;;;;;;;;;;5004684;28;20065;-80
2024/02/25 09:16:57;;;;;;;3.28;1.55;;;;;;;;;;5006215;28;20488;-81
2024/02/25 09:19:42;;;;;;;2.72;1.20;;;;;;;;;;5003135;28;20034;-83
2024/02/25 09:22:28;;;;;;;3.25;1.48;;;;;;;;;;5006246;28;20026;-81
2024/02/25 09:25:13;;;;;;;3.17;1.75;;;;;;;;;;5001475;28;20034;-80
2024/02/25 09:28:02;;;;;;;3.40;1.50;;;;;;;;;;5001275;28;20116;-82
2024/02/25 09:30:47;;;;;;;9.75;5.93;;;;;;;;;;5008735;28;20160;-81
2024/02/25 09:33:34;;;;;;;3.67;2.05;;;;;;;;;;5013613;28;20042;-81
2024/02/25 09:36:23;;;;;;;4.53;1.63;;;;;;;;;;5008608;28;20412;-81
2024/02/25 09:39:08;;;;;;;2.00;1.63;;;;;;;;;;5014442;28;20520;-80
2024/02/25 09:41:53;;;;;;;2.58;1.63;;;;;;;;;;5006304;28;20029;-79
2024/02/25 09:44:39;;;;;;;5.50;1.70;;;;;;;;;;5004113;28;20040;-81
2024/02/25 09:47:24;;;;;;;2.17;1.40;;;;;;;;;;5003331;28;20037;-81
2024/02/25 09:50:10;;;;;;;3.30;1.55;;;;;;;;;;5012826;28;20043;-81
2024/02/25 09:52:55;;;;;;;2.58;1.40;;;;;;;;;;5016374;28;20037;-81
2024/02/25 09:55:43;;;;;;;1.98;1.20;;;;;;;;;;5010470;28;20558;-81
2024/02/25 09:58:28;;;;;;;1.73;1.20;;;;;;;;;;5009700;28;20035;-80
2024/02/25 10:01:13;;;;;;;2.92;1.17;;;;;;;;;;4990134;28;20040;-80
2024/02/25 10:03:58;;;;;;;2.42;1.15;;;;;;;;;;5009902;28;20516;-80
2024/02/25 10:06:44;;;;;;;1.17;1.05;;;;;;;;;;5012826;28;20555;-80
2024/02/25 10:09:30;;;;;;;4.43;1.45;;;;;;;;;;5008021;28;20086;-80
2024/02/25 10:12:15;;;;;;;1.60;1.13;;;;;;;;;;5007768;28;20476;-80
2024/02/25 10:15:00;;;;;;;2.65;1.10;;;;;;;;;;5008541;28;20036;-80
2024/02/25 10:17:45;;;;;;;2.63;1.23;;;;;;;;;;5008628;28;20033;-80
2024/02/25 10:20:31;;;;;;;1.00;0.98;;;;;;;;;;5010199;28;20076;-80
2024/02/25 10:23:17;;;;;;;1.48;0.90;;;;;;;;;;5012796;28;20407;-79
2024/02/25 10:26:15;;;;;;;2.05;1.10;;;;;;;;;;5009928;28;20029;-79
2024/02/25 10:29:02;;;;;;;1.50;0.73;;;;;;;;;;5002891;28;20037;-79
2024/02/25 10:31:57;;;;;;;1.77;0.80;;;;;;;;;;5001933;28;20629;-80
2024/02/25 10:34:42;;;;;;;1.38;0.85;;;;;;;;;;5000164;28;20064;-79
2024/02/25 10:37:28;;;;;;;1.30;0.80;;;;;;;;;;5002389;28;20040;-80
2024/02/25 10:40:14;;;;;;;0.70;0.70;;;;;;;;;;5012348;28;20092;-80
2024/02/25 10:42:59;;;;;;;0.93;0.75;;;;;;;;;;5006718;28;20112;-79
2024/02/25 10:45:47;;;;;;;1.65;1.05;;;;;;;;;;5010039;28;20120;-81
2024/02/25 10:48:33;;;;;;;1.08;0.70;;;;;;;;;;5018689;28;20113;-80
2024/02/25 10:51:20;;;;;;;1.45;0.90;;;;;;;;;;5008768;28;20047;-80
2024/02/25 10:54:09;;;;;;;1.48;0.80;;;;;;;;;;5013017;28;20061;-80
2024/02/25 10:56:56;;;;;;;1.30;0.77;;;;;;;;;;5012940;28;20045;-84
2024/02/25 10:59:42;;;;;;;0.60;0.60;;;;;;;;;;5006634;28;20303;-83
2024/02/25 11:02:28;;;;;;;1.55;0.80;;;;;;;;;;5011033;28;20543;-84
2024/02/25 11:05:17;;;;;;;0.85;0.77;;;;;;;;;;5008518;28;20476;-85
2024/02/25 11:08:00;;;;;;;2.80;0.85;;;;;;;;;;5022430;28;20254;-77
2024/02/25 11:10:46;;;;;;;1.30;0.70;;;;;;;;;;5003109;28;20033;-77
2024/02/25 11:13:31;;;;;;;1.35;0.70;;;;;;;;;;5007470;28;20170;-81
2024/02/25 11:16:17;;;;;;;0.80;0.80;;;;;;;;;;5002764;28;20105;-86
2024/02/25 11:19:02;;;;;;;2.28;0.90;;;;;;;;;;5006855;28;20101;-84
2024/02/25 11:21:52;;;;;;;1.65;0.93;;;;;;;;;;4999785;28;20021;-82
2024/02/25 11:24:49;;;;;;;1.42;1.13;;;;;;;;;;5024844;28;20100;-83
2024/02/25 11:27:54;;;;;;;0.77;0.75;;;;;;;;;;5009767;28;20029;-83
2024/02/25 11:30:53;;;;;;;0.85;0.80;;;;;;;;;;5001411;28;20444;-83
2024/02/25 11:33:44;;;;;;;1.70;1.15;;;;;;;;;;4996556;28;20073;-83
2024/02/25 11:36:29;;;;;;;1.63;0.93;;;;;;;;;;5001030;28;20021;-83
2024/02/25 11:39:15;;;;;;;2.35;1.30;;;;;;;;;;4998006;28;20049;-83
2024/02/25 11:42:04;;;;;;;1.50;1.13;;;;;;;;;;4989713;28;20400;-83
2024/02/25 11:44:49;;;;;;;1.27;0.93;;;;;;;;;;5010037;28;20025;-83
2024/02/25 11:47:36;;;;;;;3.00;1.50;;;;;;;;;;5001302;28;20045;-81
2024/02/25 11:50:29;;;;;;;1.70;1.05;;;;;;;;;;5005121;28;20345;-84
2024/02/25 11:53:15;;;;;;;0.82;0.82;;;;;;;;;;4997439;28;20089;-84
2024/02/25 11:56:03;;;;;;;2.35;1.33;;;;;;;;;;4995239;28;20156;-83
2024/02/25 11:59:03;;;;;;;1.85;1.23;;;;;;;;;;5012503;28;20021;-84
2024/02/25 12:01:48;;;;;;;1.67;1.35;;;;;;;;;;5020260;28;20084;-83
2024/02/25 12:04:33;;;;;;;2.78;1.20;;;;;;;;;;5008989;28;20672;-85
2024/02/25 12:07:19;;;;;;;1.83;0.95;;;;;;;;;;5010319;28;20163;-84
2024/02/25 12:10:11;;;;;;;1.85;1.17;;;;;;;;;;4999762;28;20492;-84
2024/02/25 12:12:56;;;;;;;1.80;1.27;;;;;;;;;;4999550;28;20029;-82
2024/02/25 12:15:42;;;;;;;1.35;1.00;;;;;;;;;;5008874;28;20116;-82
2024/02/25 12:18:28;;;;;;;1.52;1.00;;;;;;;;;;5004004;28;20021;-82
2024/02/25 12:21:13;;;;;;;1.35;0.80;;;;;;;;;;5001024;28;20193;-83
2024/02/25 12:24:05;;;;;;;1.35;1.08;;;;;;;;;;5009516;28;20044;-84
2024/02/25 12:26:55;;;;;;;1.00;0.90;;;;;;;;;;5006927;28;20038;-83
2024/02/25 12:29:40;;;;;;;0.70;0.70;;;;;;;;;;5010989;28;20100;-82
2024/02/25 12:32:27;;;;;;;1.33;0.90;;;;;;;;;;5009156;28;20039;-83
2024/02/25 12:35:15;;;;;;;0.85;0.85;;;;;;;;;;4999615;28;20378;-83
2024/02/25 12:38:03;;;;;;;0.80;0.80;;;;;;;;;;5004434;28;20054;-83
2024/02/25 12:41:04;;;;;;;1.20;1.10;;;;;;;;;;5001266;28;20528;-82
2024/02/25 12:43:51;;;;;;;1.63;0.90;;;;;;;;;;4998798;28;20504;-83
2024/02/25 12:46:39;;;;;;;0.80;0.70;;;;;;;;;;4997757;28;20199;-82
2024/02/25 12:49:25;;;;;;;0.82;0.70;;;;;;;;;;4996896;28;20029;-82
2024/02/25 12:52:10;;;;;;;1.35;0.70;;;;;;;;;;5006937;28;20021;-82
2024/02/25 12:54:55;;;;;;;1.00;0.80;;;;;;;;;;5000894;28;20117;-82
2024/02/25 12:57:40;;;;;;;5.28;1.35;;;;;;;;;;4998356;28;20018;-81
2024/02/25 13:00:26;;;;;;;1.83;1.08;;;;;;;;;;4999790;28;20567;-83
2024/02/25 13:03:12;;;;;;;2.55;0.90;;;;;;;;;;5002608;28;20050;-82
2024/02/25 13:05:57;;;;;;;0.77;0.70;;;;;;;;;;4998459;28;20073;-81
2024/02/25 13:08:43;;;;;;;1.85;0.80;;;;;;;;;;4996601;28;20076;-82
2024/02/25 13:11:31;;;;;;;2.72;0.77;;;;;;;;;;4998513;28;20022;-83
2024/02/25 13:14:16;;;;;;;3.80;1.00;;;;;;;;;;4996384;28;20338;-82
2024/02/25 13:17:01;;;;;;;4.57;1.33;;;;;;;;;;4998222;28;20519;-82
2024/02/25 13:19:46;;;;;;;0.98;0.88;;;;;;;;;;5012727;28;20018;-80
2024/02/25 13:22:32;;;;;;;0.73;0.63;;;;;;;;;;5017469;28;20352;-81
2024/02/25 13:25:18;;;;;;;2.03;1.13;;;;;;;;;;5007373;28;20038;-82
2024/02/25 13:28:05;;;;;;;2.83;1.05;;;;;;;;;;5013497;28;20034;-82
2024/02/25 13:30:51;;;;;;;1.17;1.05;;;;;;;;;;5021520;28;20049;-81
2024/02/25 13:33:36;;;;;;;1.48;1.00;;;;;;;;;;5000117;28;20050;-80
2024/02/25 13:36:25;;;;;;;1.48;1.02;;;;;;;;;;5000748;28;20541;-81
2024/02/25 13:39:11;;;;;;;1.45;0.90;;;;;;;;;;5001088;28;20031;-82
2024/02/25 13:41:56;;;;;;;2.90;0.80;;;;;;;;;;5000575;28;20034;-80
2024/02/25 13:44:41;;;;;;;2.10;0.98;;;;;;;;;;4999993;28;20444;-81
2024/02/25 13:47:27;;;;;;;1.65;0.90;;;;;;;;;;4994537;28;20455;-81
2024/02/25 13:50:12;;;;;;;2.05;0.88;;;;;;;;;;5000340;28;20049;-80
2024/02/25 13:52:57;;;;;;;1.80;1.70;;;;;;;;;;5003925;28;20030;-80
2024/02/25 13:55:42;;;;;;;0.98;0.90;;;;;;;;;;4990886;28;20108;-80
2024/02/25 13:58:28;;;;;;;1.52;1.00;;;;;;;;;;4995427;28;20022;-81
2024/02/25 14:01:13;;;;;;;1.92;1.02;;;;;;;;;;4999085;28;20014;-79
2024/02/25 14:03:58;;;;;;;2.13;0.73;;;;;;;;;;5003835;28;20034;-78
2024/02/25 14:06:44;;;;;;;2.30;1.00;;;;;;;;;;4999356;28;20032;-79
2024/02/25 14:09:29;;;;;;;2.53;1.08;;;;;;;;;;5009594;28;20508;-79
2024/02/25 14:12:16;;;;;;;2.35;1.33;;;;;;;;;;4992318;28;20038;-79
2024/02/25 14:15:01;;;;;;;1.40;0.80;;;;;;;;;;5001913;28;20477;-78
2024/02/25 14:17:55;;;;;;;1.30;1.13;;;;;;;;;;4998594;28;20070;-77
2024/02/25 14:20:40;;;;;;;1.88;0.90;;;;;;;;;;4994521;28;20437;-79
2024/02/25 14:23:25;;;;;;;3.88;1.10;;;;;;;;;;4996859;28;20026;-79
2024/02/25 14:26:11;;;;;;;0.80;0.77;;;;;;;;;;4999988;28;20054;-80
2024/02/25 14:28:56;;;;;;;3.03;0.90;;;;;;;;;;5001271;28;20168;-79
2024/02/25 14:31:41;;;;;;;1.33;1.08;;;;;;;;;;5006146;28;20026;-81
2024/02/25 14:34:27;;;;;;;1.25;0.93;;;;;;;;;;4997819;28;20441;-80
2024/02/25 14:37:15;;;;;;;0.80;0.80;;;;;;;;;;5003765;28;20029;-80
2024/02/25 14:40:00;;;;;;;2.03;0.90;;;;;;;;;;5000027;28;20066;-80
2024/02/25 14:42:48;;;;;;;1.85;0.70;;;;;;;;;;5005031;28;20061;-80
2024/02/25 14:45:33;;;;;;;0.95;0.80;;;;;;;;;;5004147;28;20598;-79
2024/02/25 14:48:18;;;;;;;3.03;1.00;;;;;;;;;;5011171;28;20507;-80
2024/02/25 14:51:04;;;;;;;1.05;0.98;;;;;;;;;;5002275;28;20113;-79
2024/02/25 14:53:49;;;;;;;1.00;0.90;;;;;;;;;;4998005;28;20029;-79
2024/02/25 14:56:35;;;;;;;3.20;1.27;;;;;;;;;;5002546;28;20036;-79
2024/02/25 14:59:21;;;;;;;0.90;0.75;;;;;;;;;;4999369;28;20018;-79
2024/02/25 15:02:06;;;;;;;1.27;0.70;;;;;;;;;;5000343;28;20469;-79
2024/02/25 15:04:54;;;;;;;1.98;1.23;;;;;;;;;;5001275;28;20532;-80
2024/02/25 15:07:40;;;;;;;3.92;2.20;;;;;;;;;;5012646;28;20025;-79
2024/02/25 15:10:26;;;;;;;4.60;2.05;;;;;;;;;;5004631;28;20131;-79
2024/02/25 15:13:11;;;;;;;2.15;1.20;;;;;;;;;;4993398;28;20069;-78
2024/02/25 15:15:56;;;;;;;10.38;2.80;;;;;;;;;;4995037;28;20053;-79
2024/02/25 15:18:43;;;;;;;6.63;2.30;;;;;;;;;;5002243;28;20672;-80
2024/02/25 15:21:28;;;;;;;10.82;4.15;;;;;;;;;;5006339;28;20010;-79
2024/02/25 15:24:13;;;;;;;3.60;1.80;;;;;;;;;;5001962;28;20030;-79
2024/02/25 15:26:59;;;;;;;1.20;1.08;;;;;;;;;;5002750;28;20405;-79
2024/02/25 15:29:44;;;;;;;2.70;1.02;;;;;;;;;;5000729;28;20034;-77
2024/02/25 15:32:29;;;;;;;2.58;1.10;;;;;;;;;;5007558;28;20557;-78
2024/02/25 15:35:14;;;;;;;0.75;0.75;;;;;;;;;;5007464;28;20117;-81
2024/02/25 15:38:00;;;;;;;1.60;0.95;;;;;;;;;;5001206;28;20124;-81
2024/02/25 15:40:49;;;;;;;0.95;0.73;;;;;;;;;;5004573;28;20112;-79
2024/02/25 15:43:35;;;;;;;1.33;0.93;;;;;;;;;;5002536;28;20427;-79
2024/02/25 15:46:23;;;;;;;2.33;1.30;;;;;;;;;;5005431;28;20030;-82
2024/02/25 15:49:10;;;;;;;1.50;0.93;;;;;;;;;;5005177;28;20104;-79
2024/02/25 15:51:56;;;;;;;1.48;0.90;;;;;;;;;;4998398;28;20033;-77
2024/02/25 15:54:41;;;;;;;1.45;1.08;;;;;;;;;;4994152;28;20029;-77
2024/02/25 15:57:27;;;;;;;3.60;1.10;;;;;;;;;;4997721;28;20022;-77
2024/02/25 16:00:12;;;;;;;1.05;0.80;;;;;;;;;;4995819;28;20488;-78
2024/02/25 16:02:57;;;;;;;1.40;1.00;;;;;;;;;;4996086;28;20069;-78
2024/02/25 16:05:42;;;;;;;1.27;0.82;;;;;;;;;;4994440;28;20065;-78
2024/02/25 16:08:28;;;;;;;0.90;0.90;;;;;;;;;;4995672;28;20085;-79
2024/02/25 16:11:13;;;;;;;2.55;1.20;;;;;;;;;;4992443;28;20105;-77
2024/02/25 16:13:58;;;;;;;3.33;0.90;;;;;;;;;;4996133;28;20029;-76
2024/02/25 16:16:44;;;;;;;4.68;1.30;;;;;;;;;;4990545;28;20033;-82
2024/02/25 16:19:30;;;;;;;2.55;1.00;;;;;;;;;;5000174;28;20025;-82
2024/02/25 16:22:15;;;;;;;0.95;0.93;;;;;;;;;;4995701;28;20030;-83
2024/02/25 16:25:00;;;;;;;3.08;1.45;;;;;;;;;;5004918;28;20034;-83
2024/02/25 16:27:45;;;;;;;3.70;1.30;;;;;;;;;;5007895;28;20551;-83
2024/02/25 16:30:31;;;;;;;3.63;1.20;;;;;;;;;;5002450;28;20029;-83
2024/02/25 16:33:16;;;;;;;3.75;1.25;;;;;;;;;;5006840;28;20072;-83
2024/02/25 16:36:02;;;;;;;1.75;1.10;;;;;;;;;;5005775;28;20408;-83